Time;durP1;ratioP1;P1;durP2;ratioP2;P2;SDS_P1;SDS_P2;PMS_P1;PMS_P2;Temp;Humidity;BMP_temperature;BMP_pressure;BME280_temperature;BME280_humidity;BME280_pressure;Samples;Min_cycle;Max_cycle;Signal;HPM_P1;HPM_P2
2022/09/06 00:02:08;;;;;;;23.45;7.15;;;;;;;;;;6192882;28;20042;-62
2022/09/06 00:05:10;;;;;;;18.05;7.28;;;;;;;;;;6192755;28;20100;-61
2022/09/06 00:08:11;;;;;;;19.95;7.00;;;;;;;;;;6199356;28;20517;-61
2022/09/06 00:11:13;;;;;;;18.85;7.70;;;;;;;;;;6192308;28;20112;-61
2022/09/06 00:14:13;;;;;;;15.85;6.82;;;;;;;;;;6192413;28;20082;-61
2022/09/06 00:17:14;;;;;;;15.35;6.40;;;;;;;;;;6192641;28;20517;-62
2022/09/06 00:20:15;;;;;;;13.93;6.03;;;;;;;;;;6191958;28;20042;-61
2022/09/06 00:23:15;;;;;;;14.07;5.97;;;;;;;;;;6192761;28;20760;-61
2022/09/06 00:26:16;;;;;;;13.13;5.38;;;;;;;;;;6191811;28;20093;-61
2022/09/06 00:29:17;;;;;;;14.93;5.68;;;;;;;;;;6192132;28;20513;-61
2022/09/06 00:32:17;;;;;;;15.32;6.20;;;;;;;;;;6187302;28;20046;-61
2022/09/06 00:35:19;;;;;;;19.58;6.72;;;;;;;;;;6185985;28;20406;-61
2022/09/06 00:38:19;;;;;;;15.68;6.25;;;;;;;;;;6187516;28;20043;-62
2022/09/06 00:41:20;;;;;;;15.25;5.70;;;;;;;;;;6185593;28;20089;-60
2022/09/06 00:44:21;;;;;;;16.83;6.90;;;;;;;;;;6185740;28;20054;-61
2022/09/06 00:47:21;;;;;;;15.15;6.40;;;;;;;;;;6187186;28;20046;-62
2022/09/06 00:50:22;;;;;;;15.88;5.97;;;;;;;;;;6185453;28;20050;-61
2022/09/06 00:53:24;;;;;;;16.15;5.80;;;;;;;;;;6185061;28;20401;-61
2022/09/06 00:56:25;;;;;;;14.30;5.78;;;;;;;;;;6186630;28;20046;-61
2022/09/06 00:59:30;;;;;;;13.05;4.97;;;;;;;;;;6185244;28;20052;-61
2022/09/06 01:02:31;;;;;;;10.18;4.70;;;;;;;;;;6184670;28;20113;-61
2022/09/06 01:05:43;;;;;;;16.55;5.68;;;;;;;;;;6185171;28;20039;-61
2022/09/06 01:09:31;;;;;;;11.93;5.23;;;;;;;;;;6185764;28;20054;-61
2022/09/06 01:12:41;;;;;;;12.88;5.22;;;;;;;;;;6182959;28;20303;-62
2022/09/06 01:16:01;;;;;;;12.90;5.72;;;;;;;;;;6184333;28;20486;-61
2022/09/06 01:19:11;;;;;;;18.40;5.72;;;;;;;;;;6184798;28;20497;-61
2022/09/06 01:22:45;;;;;;;15.35;5.88;;;;;;;;;;6184822;28;20482;-61
2022/09/06 01:26:02;;;;;;;13.60;5.13;;;;;;;;;;6183459;28;20540;-61
2022/09/06 01:29:26;;;;;;;16.80;6.50;;;;;;;;;;6185274;28;20054;-60
2022/09/06 01:32:52;;;;;;;13.88;5.07;;;;;;;;;;6184785;28;20046;-61
2022/09/06 01:36:03;;;;;;;13.23;5.53;;;;;;;;;;6185835;28;20105;-61
2022/09/06 01:39:05;;;;;;;18.58;6.90;;;;;;;;;;6192689;28;20046;-60
2022/09/06 01:42:13;;;;;;;14.53;5.70;;;;;;;;;;6192123;28;20489;-61
2022/09/06 01:45:17;;;;;;;11.10;5.50;;;;;;;;;;6191453;28;20450;-60
2022/09/06 01:48:48;;;;;;;17.25;6.00;;;;;;;;;;6194031;28;20420;-61
2022/09/06 01:52:10;;;;;;;14.00;5.95;;;;;;;;;;6194922;28;20591;-61
2022/09/06 01:55:18;;;;;;;;;;;;;;;;;;6184042;28;20056;-60
2022/09/06 01:58:29;;;;;;;14.38;5.32;;;;;;;;;;6196448;28;19932;-61
2022/09/06 02:01:44;;;;;;;15.05;6.00;;;;;;;;;;6172211;28;20146;-61
2022/09/06 02:05:27;;;;;;;17.13;5.93;;;;;;;;;;6188891;28;20057;-61
2022/09/06 02:08:47;;;;;;;13.90;6.18;;;;;;;;;;6189733;28;20105;-61
2022/09/06 02:11:57;;;;;;;15.10;5.40;;;;;;;;;;6191796;28;20039;-61
2022/09/06 02:15:05;;;;;;;16.55;5.55;;;;;;;;;;6189029;28;20572;-61
2022/09/06 02:18:12;;;;;;;15.07;5.47;;;;;;;;;;6190787;28;20042;-61
2022/09/06 02:21:15;;;;;;;14.90;5.80;;;;;;;;;;6185545;28;20624;-61
2022/09/06 02:24:23;;;;;;;18.08;5.88;;;;;;;;;;6187398;28;20043;-61
2022/09/06 02:27:24;;;;;;;14.00;5.55;;;;;;;;;;6187641;28;20108;-61
2022/09/06 02:30:25;;;;;;;15.30;5.72;;;;;;;;;;6187660;28;20085;-61
2022/09/06 02:33:29;;;;;;;14.45;5.70;;;;;;;;;;6192108;28;20046;-61
2022/09/06 02:36:31;;;;;;;15.82;5.25;;;;;;;;;;6188630;28;20054;-61
2022/09/06 02:39:32;;;;;;;26.05;6.13;;;;;;;;;;6188729;28;20046;-61
2022/09/06 02:42:33;;;;;;;18.80;5.78;;;;;;;;;;6188218;28;20181;-60
2022/09/06 02:45:34;;;;;;;17.23;6.35;;;;;;;;;;6186375;28;20050;-61
2022/09/06 02:48:35;;;;;;;19.00;6.28;;;;;;;;;;6186917;28;20489;-62
2022/09/06 02:51:39;;;;;;;16.63;5.45;;;;;;;;;;6188763;28;20093;-61
2022/09/06 02:54:39;;;;;;;19.23;6.47;;;;;;;;;;6188249;28;20544;-61
2022/09/06 02:57:40;;;;;;;15.32;5.85;;;;;;;;;;6188268;28;20082;-62
2022/09/06 03:00:41;;;;;;;14.70;6.13;;;;;;;;;;6187853;28;20050;-61
2022/09/06 03:03:41;;;;;;;18.67;6.28;;;;;;;;;;6187057;28;20121;-61
2022/09/06 03:06:42;;;;;;;21.02;6.57;;;;;;;;;;6188854;28;20481;-61
2022/09/06 03:09:42;;;;;;;18.25;6.00;;;;;;;;;;6185902;28;20077;-61
2022/09/06 03:12:43;;;;;;;16.80;5.72;;;;;;;;;;6191611;28;20533;-60
2022/09/06 03:15:50;;;;;;;19.15;6.53;;;;;;;;;;6192719;28;20050;-61
2022/09/06 03:18:50;;;;;;;21.95;6.72;;;;;;;;;;6194535;28;20052;-61
2022/09/06 03:21:51;;;;;;;16.60;5.80;;;;;;;;;;6192987;28;20038;-61
2022/09/06 03:24:51;;;;;;;16.63;6.13;;;;;;;;;;6194607;28;20050;-61
2022/09/06 03:27:52;;;;;;;19.10;6.63;;;;;;;;;;6187125;28;20053;-61
2022/09/06 03:30:53;;;;;;;19.58;6.20;;;;;;;;;;6188279;28;20054;-61
2022/09/06 03:33:53;;;;;;;14.60;5.72;;;;;;;;;;6191368;28;20050;-61
2022/09/06 03:36:54;;;;;;;13.55;5.43;;;;;;;;;;6186990;28;20058;-61
2022/09/06 03:39:54;;;;;;;16.15;6.18;;;;;;;;;;6188174;28;20046;-60
2022/09/06 03:42:55;;;;;;;16.27;5.85;;;;;;;;;;6185297;28;20050;-61
2022/09/06 03:45:56;;;;;;;16.17;5.80;;;;;;;;;;6184772;28;20517;-61
2022/09/06 03:48:58;;;;;;;16.92;5.72;;;;;;;;;;6187439;28;20042;-61
2022/09/06 03:51:58;;;;;;;14.20;5.50;;;;;;;;;;6185444;28;20138;-60
2022/09/06 03:54:59;;;;;;;15.68;6.03;;;;;;;;;;6194324;28;20049;-61
2022/09/06 03:57:59;;;;;;;19.20;6.22;;;;;;;;;;6186653;28;20414;-61
2022/09/06 04:01:06;;;;;;;16.85;6.75;;;;;;;;;;6185460;28;20046;-61
2022/09/06 04:04:06;;;;;;;15.10;6.18;;;;;;;;;;6185604;28;20042;-61
2022/09/06 04:07:07;;;;;;;15.10;6.00;;;;;;;;;;6188630;28;20149;-61
2022/09/06 04:10:08;;;;;;;17.00;6.28;;;;;;;;;;6185572;28;20058;-61
2022/09/06 04:13:09;;;;;;;14.18;6.22;;;;;;;;;;6187336;28;20490;-61
2022/09/06 04:16:09;;;;;;;18.73;6.03;;;;;;;;;;6181120;28;20039;-66
2022/09/06 04:19:11;;;;;;;15.80;5.45;;;;;;;;;;6184438;28;20141;-61
2022/09/06 04:22:11;;;;;;;18.55;6.55;;;;;;;;;;6189144;28;20073;-61
2022/09/06 04:25:12;;;;;;;13.85;6.03;;;;;;;;;;6190886;28;20046;-62
2022/09/06 04:28:14;;;;;;;17.67;6.47;;;;;;;;;;6187240;28;20133;-61
2022/09/06 04:31:14;;;;;;;14.30;5.47;;;;;;;;;;6186096;28;20052;-61
2022/09/06 04:34:15;;;;;;;16.02;6.18;;;;;;;;;;6188582;28;20050;-61
2022/09/06 04:37:18;;;;;;;19.10;6.32;;;;;;;;;;6186072;28;20066;-60
2022/09/06 04:40:19;;;;;;;16.27;6.10;;;;;;;;;;6183433;28;20108;-60
2022/09/06 04:43:20;;;;;;;15.80;5.40;;;;;;;;;;6185715;28;20043;-60
2022/09/06 04:46:24;;;;;;;12.20;5.77;;;;;;;;;;6183694;28;20070;-61
2022/09/06 04:49:24;;;;;;;16.38;5.78;;;;;;;;;;6184515;28;20173;-61
2022/09/06 04:52:25;;;;;;;16.00;5.63;;;;;;;;;;6185099;28;20050;-61
2022/09/06 04:55:28;;;;;;;15.93;6.22;;;;;;;;;;6187783;28;20050;-61
2022/09/06 04:58:28;;;;;;;14.38;5.57;;;;;;;;;;6185569;28;20057;-61
2022/09/06 05:01:29;;;;;;;17.92;5.30;;;;;;;;;;6183334;28;20382;-61
2022/09/06 05:04:29;;;;;;;17.00;6.07;;;;;;;;;;6183629;28;20456;-62
2022/09/06 05:07:30;;;;;;;13.70;5.43;;;;;;;;;;6182252;28;20050;-61
2022/09/06 05:10:31;;;;;;;16.77;5.55;;;;;;;;;;6185911;28;20413;-61
2022/09/06 05:13:32;;;;;;;16.58;6.53;;;;;;;;;;6183934;28;20541;-60
2022/09/06 05:16:32;;;;;;;14.80;6.28;;;;;;;;;;6183042;28;20038;-63
2022/09/06 05:19:33;;;;;;;19.15;6.43;;;;;;;;;;6187944;28;20164;-60
2022/09/06 05:22:34;;;;;;;15.05;6.00;;;;;;;;;;6180220;28;20563;-60
2022/09/06 05:25:35;;;;;;;21.08;6.75;;;;;;;;;;6183024;28;20555;-61
2022/09/06 05:28:35;;;;;;;16.67;6.53;;;;;;;;;;6182954;28;20042;-61
2022/09/06 05:31:36;;;;;;;16.73;6.10;;;;;;;;;;6183842;28;20042;-61
2022/09/06 05:34:37;;;;;;;18.80;7.28;;;;;;;;;;6187270;28;20038;-61
2022/09/06 05:37:37;;;;;;;15.90;5.85;;;;;;;;;;6188683;28;20035;-61
2022/09/06 05:40:38;;;;;;;18.85;7.03;;;;;;;;;;6189933;28;20046;-60
2022/09/06 05:43:39;;;;;;;19.38;6.68;;;;;;;;;;6190471;28;20506;-61
2022/09/06 05:46:44;;;;;;;13.75;5.85;;;;;;;;;;6189050;28;20600;-61
2022/09/06 05:49:45;;;;;;;17.52;6.47;;;;;;;;;;6184178;28;20046;-61
2022/09/06 05:52:46;;;;;;;18.55;6.13;;;;;;;;;;6190129;28;20520;-60
2022/09/06 05:55:46;;;;;;;18.30;6.60;;;;;;;;;;6191194;28;20142;-60
2022/09/06 05:58:47;;;;;;;18.98;5.82;;;;;;;;;;6190265;28;20054;-60
2022/09/06 06:01:50;;;;;;;17.20;6.05;;;;;;;;;;6190678;28;20046;-60
2022/09/06 06:04:53;;;;;;;17.77;6.65;;;;;;;;;;6190840;28;20046;-61
2022/09/06 06:07:54;;;;;;;18.30;6.80;;;;;;;;;;6191188;28;20042;-61
2022/09/06 06:10:58;;;;;;;19.95;8.65;;;;;;;;;;6190555;28;20067;-61
2022/09/06 06:14:00;;;;;;;16.13;8.10;;;;;;;;;;6191183;28;20061;-60
2022/09/06 06:17:01;;;;;;;23.00;7.88;;;;;;;;;;6191168;28;20093;-58
2022/09/06 06:20:02;;;;;;;16.83;7.10;;;;;;;;;;6189491;28;20161;-62
2022/09/06 06:23:02;;;;;;;20.30;8.48;;;;;;;;;;6190982;28;20100;-61
2022/09/06 06:26:04;;;;;;;20.85;7.40;;;;;;;;;;6189196;28;20676;-61
2022/09/06 06:29:08;;;;;;;18.52;7.60;;;;;;;;;;6194177;28;20054;-61
2022/09/06 06:32:08;;;;;;;26.50;10.02;;;;;;;;;;6187697;28;20046;-61
2022/09/06 06:35:09;;;;;;;23.05;8.40;;;;;;;;;;6188805;28;20117;-61
2022/09/06 06:38:10;;;;;;;24.23;7.50;;;;;;;;;;6192415;28;20086;-61
2022/09/06 06:41:13;;;;;;;16.67;6.80;;;;;;;;;;6194590;28;20528;-62
2022/09/06 06:44:13;;;;;;;18.98;7.70;;;;;;;;;;6194557;28;20145;-62
2022/09/06 06:47:14;;;;;;;22.35;7.95;;;;;;;;;;6194397;28;20053;-60
2022/09/06 06:50:15;;;;;;;31.17;8.88;;;;;;;;;;6195899;28;20046;-62
2022/09/06 06:53:15;;;;;;;28.83;10.77;;;;;;;;;;6194362;28;20038;-62
2022/09/06 06:56:18;;;;;;;27.92;7.97;;;;;;;;;;6194325;28;20046;-62
2022/09/06 06:59:19;;;;;;;24.67;7.97;;;;;;;;;;6194176;28;20053;-62
2022/09/06 07:02:20;;;;;;;25.05;7.60;;;;;;;;;;6194176;28;20054;-62
2022/09/06 07:05:22;;;;;;;23.73;8.50;;;;;;;;;;6194219;28;20181;-62
2022/09/06 07:08:22;;;;;;;;;;;;;;;;;;6194602;28;20046;-61
2022/09/06 07:11:23;;;;;;;21.45;8.85;;;;;;;;;;6193932;28;19930;-62
2022/09/06 07:14:23;;;;;;;24.38;8.93;;;;;;;;;;6193784;28;20109;-61
2022/09/06 07:17:24;;;;;;;32.50;8.65;;;;;;;;;;6193958;28;20065;-61
2022/09/06 07:20:25;;;;;;;29.63;8.80;;;;;;;;;;6193750;28;20052;-60
2022/09/06 07:23:25;;;;;;;25.48;7.72;;;;;;;;;;6193026;28;20038;-62
2022/09/06 07:26:28;;;;;;;25.25;7.82;;;;;;;;;;6193487;28;20041;-60
2022/09/06 07:29:29;;;;;;;23.38;8.32;;;;;;;;;;6193776;28;20436;-63
2022/09/06 07:32:34;;;;;;;21.83;7.93;;;;;;;;;;6192988;28;20125;-63
2022/09/06 07:35:34;;;;;;;21.50;7.75;;;;;;;;;;6185794;28;20042;-62
2022/09/06 07:38:35;;;;;;;22.95;7.70;;;;;;;;;;6187426;28;20080;-63
2022/09/06 07:41:36;;;;;;;22.55;8.07;;;;;;;;;;6191248;28;20095;-62
2022/09/06 07:44:37;;;;;;;30.30;8.68;;;;;;;;;;6192647;28;20042;-61
2022/09/06 07:47:37;;;;;;;16.27;7.85;;;;;;;;;;6193544;28;20410;-63
2022/09/06 07:50:38;;;;;;;20.98;8.20;;;;;;;;;;6169222;28;20050;-62
2022/09/06 07:53:40;;;;;;;21.48;7.88;;;;;;;;;;6185023;28;20456;-63
2022/09/06 07:56:41;;;;;;;24.40;7.28;;;;;;;;;;6186070;28;20682;-64
2022/09/06 07:59:42;;;;;;;21.30;7.25;;;;;;;;;;6165421;28;20070;-62
2022/09/06 08:02:42;;;;;;;16.63;7.17;;;;;;;;;;6185995;28;20046;-62
2022/09/06 08:05:43;;;;;;;18.33;7.75;;;;;;;;;;6187811;28;20096;-61
2022/09/06 08:08:44;;;;;;;22.70;7.35;;;;;;;;;;6192357;28;20453;-63
2022/09/06 08:11:45;;;;;;;18.43;6.70;;;;;;;;;;6193064;28;20050;-63
2022/09/06 08:14:45;;;;;;;16.08;6.10;;;;;;;;;;6189348;28;20546;-63
2022/09/06 08:17:49;;;;;;;17.70;6.90;;;;;;;;;;6187350;28;20476;-64
2022/09/06 08:20:50;;;;;;;23.05;7.70;;;;;;;;;;6185477;28;20050;-63
2022/09/06 08:23:53;;;;;;;14.50;6.13;;;;;;;;;;6184806;28;21614;-61
2022/09/06 08:26:54;;;;;;;19.67;6.40;;;;;;;;;;6184116;28;20398;-61
2022/09/06 08:29:55;;;;;;;17.88;6.25;;;;;;;;;;6185111;28;20046;-61
2022/09/06 08:32:56;;;;;;;14.05;5.68;;;;;;;;;;6184301;28;20488;-63
2022/09/06 08:35:57;;;;;;;22.10;6.95;;;;;;;;;;6184624;28;20061;-62
2022/09/06 08:39:03;;;;;;;14.75;6.03;;;;;;;;;;6184223;28;20050;-62
2022/09/06 08:42:05;;;;;;;14.52;6.03;;;;;;;;;;6182955;28;20046;-61
2022/09/06 08:45:17;;;;;;;16.08;6.50;;;;;;;;;;6184013;28;20058;-62
2022/09/06 08:48:18;;;;;;;14.20;6.10;;;;;;;;;;6182144;28;20086;-63
2022/09/06 08:51:31;;;;;;;16.50;6.55;;;;;;;;;;6184132;28;20139;-60
2022/09/06 08:54:54;;;;;;;17.95;7.00;;;;;;;;;;6183827;28;20089;-60
2022/09/06 08:58:22;;;;;;;18.33;7.07;;;;;;;;;;6175883;28;20057;-64
2022/09/06 09:01:28;;;;;;;15.77;6.30;;;;;;;;;;6183391;28;20133;-63
2022/09/06 09:04:30;;;;;;;18.65;5.95;;;;;;;;;;6183540;28;20612;-62
2022/09/06 09:07:52;;;;;;;15.88;5.78;;;;;;;;;;6183700;28;20056;-62
2022/09/06 09:11:10;;;;;;;17.02;6.43;;;;;;;;;;6185384;28;20050;-63
2022/09/06 09:14:18;;;;;;;18.40;6.90;;;;;;;;;;6183408;28;20089;-61
2022/09/06 09:17:28;;;;;;;13.02;6.32;;;;;;;;;;6184229;28;20537;-60
2022/09/06 09:20:28;;;;;;;15.57;6.53;;;;;;;;;;6185223;28;20073;-63
2022/09/06 09:23:32;;;;;;;14.32;5.85;;;;;;;;;;6188516;28;20050;-63
2022/09/06 09:27:11;;;;;;;22.70;7.63;;;;;;;;;;6184790;28;20414;-61
2022/09/06 09:30:12;;;;;;;15.82;6.55;;;;;;;;;;6182425;28;20056;-63
2022/09/06 09:33:25;;;;;;;17.30;6.20;;;;;;;;;;6182739;28;20058;-63
2022/09/06 09:36:26;;;;;;;13.75;5.85;;;;;;;;;;6183873;28;20748;-62
2022/09/06 09:39:35;;;;;;;17.70;6.60;;;;;;;;;;6182335;28;20050;-62
2022/09/06 09:42:36;;;;;;;18.13;8.55;;;;;;;;;;6182065;28;20069;-63
2022/09/06 09:45:37;;;;;;;18.25;7.45;;;;;;;;;;6184121;28;20073;-63
2022/09/06 09:48:39;;;;;;;28.38;6.80;;;;;;;;;;6185197;28;20867;-63
2022/09/06 09:51:43;;;;;;;15.57;6.80;;;;;;;;;;6187808;28;20509;-63
2022/09/06 09:54:45;;;;;;;19.70;6.43;;;;;;;;;;6189954;28;20137;-63
2022/09/06 09:57:47;;;;;;;16.40;6.03;;;;;;;;;;6191893;28;20053;-63
2022/09/06 10:01:11;;;;;;;14.85;5.57;;;;;;;;;;6195647;28;20602;-63
2022/09/06 10:04:19;;;;;;;18.45;6.13;;;;;;;;;;6194925;28;20133;-62
2022/09/06 10:07:22;;;;;;;14.65;5.75;;;;;;;;;;6195917;28;20050;-63
2022/09/06 10:10:28;;;;;;;11.07;5.05;;;;;;;;;;6194998;28;20074;-62
2022/09/06 10:13:30;;;;;;;12.68;5.20;;;;;;;;;;6195109;28;20054;-63
2022/09/06 10:16:44;;;;;;;20.38;5.80;;;;;;;;;;6195249;28;20050;-63
2022/09/06 10:19:46;;;;;;;16.92;5.82;;;;;;;;;;6194586;28;20054;-62
2022/09/06 10:23:05;;;;;;;13.43;5.38;;;;;;;;;;6195186;28;20050;-60
2022/09/06 10:26:24;;;;;;;15.80;5.43;;;;;;;;;;6192833;28;20860;-62
2022/09/06 10:29:46;;;;;;;15.95;5.15;;;;;;;;;;6193749;28;20050;-63
2022/09/06 10:32:57;;;;;;;12.65;4.60;;;;;;;;;;6193458;28;20050;-63
2022/09/06 10:36:00;;;;;;;15.02;5.13;;;;;;;;;;6188194;28;20049;-61
2022/09/06 10:39:13;;;;;;;13.25;5.68;;;;;;;;;;6188044;28;20054;-63
2022/09/06 10:42:28;;;;;;;13.65;6.35;;;;;;;;;;6186699;28;20471;-62
2022/09/06 10:45:40;;;;;;;15.20;5.60;;;;;;;;;;6186771;28;20133;-62
2022/09/06 10:48:44;;;;;;;11.88;5.43;;;;;;;;;;6186610;28;20636;-62
2022/09/06 10:51:56;;;;;;;13.60;4.97;;;;;;;;;;6188302;28;20052;-62
2022/09/06 10:55:02;;;;;;;10.50;4.68;;;;;;;;;;6189237;28;20046;-63
2022/09/06 10:58:03;;;;;;;15.77;5.25;;;;;;;;;;6187655;28;20054;-62
2022/09/06 11:01:10;;;;;;;14.63;5.57;;;;;;;;;;6185194;28;20720;-63
2022/09/06 11:04:22;;;;;;;11.63;4.95;;;;;;;;;;6187136;28;20133;-62
2022/09/06 11:07:30;;;;;;;;;;;;;;;;;;6188980;28;20053;-62
2022/09/06 11:10:33;;;;;;;16.13;4.63;;;;;;;;;;6187218;28;20092;-62
2022/09/06 11:13:33;;;;;;;12.73;4.70;;;;;;;;;;6186866;28;20118;-63
2022/09/06 11:16:42;;;;;;;16.53;4.60;;;;;;;;;;6186993;28;20073;-61
2022/09/06 11:19:43;;;;;;;16.83;4.50;;;;;;;;;;6186467;28;20453;-63
2022/09/06 11:23:22;;;;;;;13.37;5.17;;;;;;;;;;6187050;28;20145;-74
2022/09/06 11:26:33;;;;;;;14.00;4.95;;;;;;;;;;6186410;28;20053;-60
2022/09/06 11:29:40;;;;;;;14.18;5.32;;;;;;;;;;6185905;28;22077;-63
2022/09/06 11:33:01;;;;;;;18.33;4.90;;;;;;;;;;6192075;28;20493;-63
2022/09/06 11:39:13;;;;;;;17.52;5.07;;;;;;;;;;6515941;22;20064;-61
2022/09/06 11:42:36;;;;;;;15.98;4.88;;;;;;;;;;6300182;28;20040;-57
2022/09/06 11:45:47;;;;;;;15.52;5.43;;;;;;;;;;6296096;28;20048;-56
2022/09/06 11:49:01;;;;;;;13.30;4.75;;;;;;;;;;6298557;28;20040;-58
2022/09/06 11:52:40;;;;;;;14.32;5.07;;;;;;;;;;6298532;28;20135;-58
2022/09/06 11:55:48;;;;;;;12.20;5.10;;;;;;;;;;6295873;28;20101;-58
2022/09/06 11:58:58;;;;;;;13.35;5.82;;;;;;;;;;6303933;28;20530;-54
2022/09/06 12:02:02;;;;;;;15.05;6.20;;;;;;;;;;6307767;28;20131;-57
2022/09/06 12:05:06;;;;;;;11.18;5.65;;;;;;;;;;6306553;28;20104;-57
2022/09/06 12:08:09;;;;;;;14.90;5.78;;;;;;;;;;6307446;28;20047;-56
2022/09/06 12:11:41;;;;;;;15.50;5.28;;;;;;;;;;6308832;28;20056;-57
2022/09/06 12:14:45;;;;;;;17.60;5.57;;;;;;;;;;6311386;28;20059;-58
2022/09/06 12:17:48;;;;;;;14.13;5.57;;;;;;;;;;6309244;28;20049;-57
2022/09/06 12:20:51;;;;;;;16.77;5.80;;;;;;;;;;6308873;28;20047;-58
2022/09/06 12:23:51;;;;;;;13.00;5.30;;;;;;;;;;6308737;28;20505;-57
2022/09/06 12:27:17;;;;;;;25.20;6.00;;;;;;;;;;6306643;28;20394;-53
2022/09/06 12:30:43;;;;;;;15.90;5.72;;;;;;;;;;6307533;28;20060;-59
2022/09/06 12:33:46;;;;;;;13.85;5.13;;;;;;;;;;6304681;28;20040;-57
2022/09/06 12:36:55;;;;;;;17.83;5.82;;;;;;;;;;6300125;28;20329;-54
2022/09/06 12:39:58;;;;;;;16.70;5.32;;;;;;;;;;6306805;28;20146;-57
2022/09/06 12:42:59;;;;;;;10.63;4.95;;;;;;;;;;6307754;28;20044;-55
2022/09/06 12:46:00;;;;;;;14.80;5.40;;;;;;;;;;6286950;28;20241;-54
2022/09/06 12:49:05;;;;;;;17.23;6.10;;;;;;;;;;6307306;28;20051;-57
2022/09/06 12:52:09;;;;;;;13.70;5.50;;;;;;;;;;6307152;28;20412;-57
2022/09/06 12:55:26;;;;;;;14.23;5.72;;;;;;;;;;6306877;28;20047;-57
2022/09/06 12:58:28;;;;;;;14.73;6.57;;;;;;;;;;6311024;28;20051;-56
2022/09/06 13:01:33;;;;;;;17.58;6.63;;;;;;;;;;6303350;28;20047;-57
2022/09/06 13:04:42;;;;;;;16.27;6.90;;;;;;;;;;6306564;28;20048;-56
2022/09/06 13:07:48;;;;;;;14.55;6.00;;;;;;;;;;6306296;28;20048;-57
2022/09/06 13:10:50;;;;;;;13.85;5.97;;;;;;;;;;6303935;28;20417;-56
2022/09/06 13:13:52;;;;;;;15.75;6.57;;;;;;;;;;6310573;28;20040;-57
2022/09/06 13:16:56;;;;;;;13.63;6.18;;;;;;;;;;6300820;28;20163;-57
2022/09/06 13:20:08;;;;;;;16.52;6.43;;;;;;;;;;6305070;28;20040;-58
2022/09/06 13:23:11;;;;;;;18.35;7.00;;;;;;;;;;6308094;28;20132;-57
2022/09/06 13:26:13;;;;;;;18.70;6.70;;;;;;;;;;6306768;28;21231;-58
2022/09/06 13:29:16;;;;;;;14.20;5.97;;;;;;;;;;6305739;28;20131;-58
2022/09/06 13:32:17;;;;;;;19.83;6.10;;;;;;;;;;6307658;28;20094;-57
2022/09/06 13:35:22;;;;;;;16.03;5.87;;;;;;;;;;6306235;28;22354;-57
2022/09/06 13:38:39;;;;;;;14.10;5.93;;;;;;;;;;6299496;28;20056;-57
2022/09/06 13:41:40;;;;;;;17.73;6.30;;;;;;;;;;6289654;28;20417;-58
2022/09/06 13:44:40;;;;;;;15.43;6.43;;;;;;;;;;6296286;28;20048;-55
2022/09/06 13:47:41;;;;;;;12.30;5.70;;;;;;;;;;6289884;28;20078;-56
2022/09/06 13:50:41;;;;;;;12.47;5.60;;;;;;;;;;6297849;28;20739;-58
2022/09/06 13:53:42;;;;;;;14.20;5.87;;;;;;;;;;6298609;28;20044;-58
2022/09/06 13:56:47;;;;;;;12.67;6.63;;;;;;;;;;6293967;28;20052;-55
2022/09/06 13:59:48;;;;;;;15.05;6.32;;;;;;;;;;6291958;28;20048;-58
2022/09/06 14:02:49;;;;;;;12.77;5.87;;;;;;;;;;6294817;28;20501;-58
2022/09/06 14:05:53;;;;;;;16.98;6.32;;;;;;;;;;6298324;28;20168;-58
2022/09/06 14:08:54;;;;;;;13.27;6.40;;;;;;;;;;6299159;28;20047;-54
2022/09/06 14:11:55;;;;;;;14.33;6.53;;;;;;;;;;6293764;28;20402;-54
2022/09/06 14:14:55;;;;;;;16.40;6.63;;;;;;;;;;6301060;28;20048;-57
2022/09/06 14:17:56;;;;;;;20.63;8.37;;;;;;;;;;6299402;28;20040;-52
2022/09/06 14:20:57;;;;;;;19.27;6.50;;;;;;;;;;6296931;28;20546;-56
2022/09/06 14:23:59;;;;;;;15.50;7.63;;;;;;;;;;6292758;28;20087;-61
2022/09/06 14:26:59;;;;;;;13.52;6.60;;;;;;;;;;6290585;28;20051;-58
2022/09/06 14:30:00;;;;;;;20.67;6.93;;;;;;;;;;6288938;28;20140;-56
2022/09/06 14:33:01;;;;;;;20.13;5.93;;;;;;;;;;6291815;28;20090;-58
2022/09/06 14:36:10;;;;;;;14.17;6.97;;;;;;;;;;6290582;28;20056;-56
2022/09/06 14:39:11;;;;;;;13.93;7.22;;;;;;;;;;6294419;28;20052;-57
2022/09/06 14:42:12;;;;;;;16.20;5.97;;;;;;;;;;6297971;28;20075;-57
2022/09/06 14:45:12;;;;;;;13.57;5.93;;;;;;;;;;6301279;28;20846;-55
2022/09/06 14:48:13;;;;;;;12.30;5.70;;;;;;;;;;6299619;28;20051;-58
2022/09/06 14:51:19;;;;;;;13.70;5.70;;;;;;;;;;6299842;28;22559;-58
2022/09/06 14:54:20;;;;;;;17.35;6.03;;;;;;;;;;6295936;28;20054;-58
2022/09/06 14:57:21;;;;;;;20.90;6.95;;;;;;;;;;6299326;28;20049;-59
2022/09/06 15:00:22;;;;;;;16.53;6.40;;;;;;;;;;6297233;28;20788;-59
2022/09/06 15:03:23;;;;;;;15.02;6.30;;;;;;;;;;6296590;28;20048;-58
2022/09/06 15:06:25;;;;;;;16.27;5.93;;;;;;;;;;6299383;28;20066;-57
2022/09/06 15:09:26;;;;;;;19.10;7.55;;;;;;;;;;6296625;28;20173;-58
2022/09/06 15:12:27;;;;;;;13.20;6.15;;;;;;;;;;6299242;28;20237;-56
2022/09/06 15:15:27;;;;;;;18.53;6.30;;;;;;;;;;6303328;28;20048;-57
2022/09/06 15:18:28;;;;;;;15.53;6.53;;;;;;;;;;6297496;28;20052;-57
2022/09/06 15:21:30;;;;;;;14.90;6.13;;;;;;;;;;6296478;28;20052;-58
2022/09/06 15:24:32;;;;;;;14.30;6.55;;;;;;;;;;6298987;28;20139;-58
2022/09/06 15:27:33;;;;;;;19.02;6.78;;;;;;;;;;6298370;28;20048;-58
2022/09/06 15:30:37;;;;;;;16.93;8.13;;;;;;;;;;6294686;28;20040;-58
2022/09/06 15:33:39;;;;;;;20.83;7.90;;;;;;;;;;6298651;28;20056;-58
2022/09/06 15:36:39;;;;;;;20.85;8.43;;;;;;;;;;6298323;28;20063;-58
2022/09/06 15:39:40;;;;;;;18.10;9.03;;;;;;;;;;6297386;28;20060;-58
2022/09/06 15:42:41;;;;;;;18.20;7.33;;;;;;;;;;6297379;28;20486;-58
2022/09/06 15:45:49;;;;;;;14.93;6.28;;;;;;;;;;6296773;28;20052;-58
2022/09/06 15:48:52;;;;;;;16.17;6.75;;;;;;;;;;6298362;28;20141;-58
2022/09/06 15:51:53;;;;;;;18.65;8.40;;;;;;;;;;6300514;28;20044;-59
2022/09/06 15:58:12;;;;;;;20.88;7.03;;;;;;;;;;6301216;28;20125;-58
2022/09/06 16:01:19;;;;;;;14.97;6.30;;;;;;;;;;6305190;28;20525;-59
2022/09/06 16:04:19;;;;;;;12.45;6.05;;;;;;;;;;6305186;28;20054;-56
2022/09/06 16:07:20;;;;;;;16.30;6.67;;;;;;;;;;6304047;28;20047;-59
2022/09/06 16:10:21;;;;;;;23.83;10.00;;;;;;;;;;6296990;28;21292;-57
2022/09/06 16:13:22;;;;;;;16.60;8.97;;;;;;;;;;6296645;28;20362;-58
2022/09/06 16:16:22;;;;;;;14.05;6.22;;;;;;;;;;6294499;28;20072;-58
2022/09/06 16:19:27;;;;;;;25.20;7.40;;;;;;;;;;6277503;28;20406;-57
2022/09/06 16:22:29;;;;;;;12.57;5.97;;;;;;;;;;6295215;28;20064;-59
2022/09/06 16:25:30;;;;;;;13.30;6.20;;;;;;;;;;6296053;28;20052;-59
2022/09/06 16:28:33;;;;;;;15.85;6.75;;;;;;;;;;6291385;28;20614;-57
2022/09/06 16:31:34;;;;;;;19.10;6.40;;;;;;;;;;6293008;28;20488;-58
2022/09/06 16:34:36;;;;;;;12.43;6.00;;;;;;;;;;6296599;28;20051;-56
2022/09/06 16:37:37;;;;;;;15.02;6.50;;;;;;;;;;6262090;28;1213506;-58
2022/09/06 16:40:43;;;;;;;22.73;6.83;;;;;;;;;;6307757;28;20067;-58
2022/09/06 16:43:44;;;;;;;14.23;6.13;;;;;;;;;;6306065;28;20212;-59
2022/09/06 16:46:46;;;;;;;;;;;;;;;;;;6294808;28;20893;-58
2022/09/06 16:49:47;;;;;;;14.20;6.20;;;;;;;;;;6299672;28;20023;-57
2022/09/06 16:52:49;;;;;;;17.30;5.77;;;;;;;;;;6293720;28;20467;-58
2022/09/06 16:55:49;;;;;;;;;;;;;;;;;;6294072;28;20059;-58
2022/09/06 16:58:55;;;;;;;16.63;6.25;;;;;;;;;;6296853;28;20338;-57
2022/09/06 17:01:56;;;;;;;17.92;6.75;;;;;;;;;;6294210;28;20474;-57
2022/09/06 17:04:57;;;;;;;21.03;6.90;;;;;;;;;;6297349;28;20040;-59
2022/09/06 17:07:57;;;;;;;15.03;6.90;;;;;;;;;;6294796;28;20052;-58
2022/09/06 17:11:09;;;;;;;21.30;7.13;;;;;;;;;;6294504;28;20049;-58
2022/09/06 17:14:10;;;;;;;22.67;7.70;;;;;;;;;;6301909;28;20048;-58
2022/09/06 17:17:12;;;;;;;14.60;6.77;;;;;;;;;;6298481;28;20444;-59
2022/09/06 17:20:16;;;;;;;17.48;6.68;;;;;;;;;;6300201;28;20051;-58
2022/09/06 17:23:17;;;;;;;18.73;6.43;;;;;;;;;;6291952;28;20040;-58
2022/09/06 17:26:20;;;;;;;17.23;6.00;;;;;;;;;;6293010;28;20063;-58
2022/09/06 17:29:20;;;;;;;17.35;6.53;;;;;;;;;;6296756;28;20047;-58
2022/09/06 17:32:21;;;;;;;17.90;6.83;;;;;;;;;;6293887;28;20060;-56
2022/09/06 17:35:22;;;;;;;13.70;6.70;;;;;;;;;;6294570;28;20055;-57
2022/09/06 17:38:22;;;;;;;16.87;7.03;;;;;;;;;;6293971;28;20064;-55
2022/09/06 17:41:27;;;;;;;20.80;7.97;;;;;;;;;;6295315;28;20752;-55
2022/09/06 17:44:27;;;;;;;19.30;7.30;;;;;;;;;;6292114;28;20048;-58
2022/09/06 17:47:28;;;;;;;18.73;7.30;;;;;;;;;;6293060;28;20054;-58
2022/09/06 17:50:30;;;;;;;23.00;7.77;;;;;;;;;;6296259;28;20052;-58
2022/09/06 17:53:31;;;;;;;15.55;7.80;;;;;;;;;;6295901;28;21263;-54
2022/09/06 17:56:33;;;;;;;16.70;8.17;;;;;;;;;;6297123;28;20053;-58
2022/09/06 17:59:34;;;;;;;18.63;8.25;;;;;;;;;;6296068;28;20051;-54
2022/09/06 18:02:35;;;;;;;17.60;7.87;;;;;;;;;;6297565;28;20174;-58
2022/09/06 18:05:39;;;;;;;21.17;8.60;;;;;;;;;;6299703;28;20499;-57
2022/09/06 18:08:42;;;;;;;18.65;9.18;;;;;;;;;;6303489;28;20177;-57
2022/09/06 18:11:46;;;;;;;23.65;9.23;;;;;;;;;;6300658;28;21303;-61
2022/09/06 18:14:47;;;;;;;23.13;9.55;;;;;;;;;;6290294;28;20048;-61
2022/09/06 18:17:48;;;;;;;20.60;8.53;;;;;;;;;;6298397;28;20051;-61